sensor_id;sensor_type;location;lat;lon;timestamp;pressure;altitude;pressure_sealevel;temperature
76583;BMP280;65462;52.148;7.940;2023-04-25T00:02:25;99966.59;;;7.77
76583;BMP280;65462;52.148;7.940;2023-04-25T00:04:50;99967.06;;;7.79
76583;BMP280;65462;52.148;7.940;2023-04-25T00:07:17;99965.19;;;7.79
76583;BMP280;65462;52.148;7.940;2023-04-25T00:09:42;99965.97;;;7.80
76583;BMP280;65462;52.148;7.940;2023-04-25T00:12:08;99976.78;;;7.78
76583;BMP280;65462;52.148;7.940;2023-04-25T00:14:34;99975.28;;;7.77
76583;BMP280;65462;52.148;7.940;2023-04-25T00:17:00;99983.31;;;7.72
76583;BMP280;65462;52.148;7.940;2023-04-25T00:19:26;99987.94;;;7.75
76583;BMP280;65462;52.148;7.940;2023-04-25T00:21:54;99978.19;;;7.76
76583;BMP280;65462;52.148;7.940;2023-04-25T00:24:19;99982.25;;;7.73
76583;BMP280;65462;52.148;7.940;2023-04-25T00:26:44;99983.78;;;7.74
76583;BMP280;65462;52.148;7.940;2023-04-25T00:29:10;99980.03;;;7.75
76583;BMP280;65462;52.148;7.940;2023-04-25T00:31:35;99984.25;;;7.68
76583;BMP280;65462;52.148;7.940;2023-04-25T00:34:01;99987.97;;;7.67
76583;BMP280;65462;52.148;7.940;2023-04-25T00:36:26;99999.56;;;7.66
76583;BMP280;65462;52.148;7.940;2023-04-25T00:38:53;99989.34;;;7.64
76583;BMP280;65462;52.148;7.940;2023-04-25T00:41:19;99990.88;;;7.65
76583;BMP280;65462;52.148;7.940;2023-04-25T00:43:45;99985.19;;;7.63
76583;BMP280;65462;52.148;7.940;2023-04-25T00:46:11;99994.00;;;7.67
76583;BMP280;65462;52.148;7.940;2023-04-25T00:48:36;99990.31;;;7.68
76583;BMP280;65462;52.148;7.940;2023-04-25T00:51:02;99985.63;;;7.65
76583;BMP280;65462;52.148;7.940;2023-04-25T00:53:28;99993.50;;;7.65
76583;BMP280;65462;52.148;7.940;2023-04-25T00:55:54;99993.22;;;7.67
76583;BMP280;65462;52.148;7.940;2023-04-25T00:58:20;99997.09;;;7.69
76583;BMP280;65462;52.148;7.940;2023-04-25T01:00:47;99989.19;;;7.69
76583;BMP280;65462;52.148;7.940;2023-04-25T01:03:13;99997.41;;;7.68
76583;BMP280;65462;52.148;7.940;2023-04-25T01:05:42;99996.63;;;7.67
76583;BMP280;65462;52.148;7.940;2023-04-25T01:08:07;99992.94;;;7.68
76583;BMP280;65462;52.148;7.940;2023-04-25T01:10:33;99989.69;;;7.71
76583;BMP280;65462;52.148;7.940;2023-04-25T01:12:58;99992.94;;;7.68
76583;BMP280;65462;52.148;7.940;2023-04-25T01:15:23;99988.75;;;7.67
76583;BMP280;65462;52.148;7.940;2023-04-25T01:17:49;99984.75;;;7.61
76583;BMP280;65462;52.148;7.940;2023-04-25T01:20:15;99993.22;;;7.67
76583;BMP280;65462;52.148;7.940;2023-04-25T01:22:41;99996.16;;;7.65
76583;BMP280;65462;52.148;7.940;2023-04-25T01:25:07;99993.84;;;7.64
76583;BMP280;65462;52.148;7.940;2023-04-25T01:27:32;100001.41;;;7.65
76583;BMP280;65462;52.148;7.940;2023-04-25T01:29:58;100000.66;;;7.65
76583;BMP280;65462;52.148;7.940;2023-04-25T01:32:25;99997.88;;;7.70
76583;BMP280;65462;52.148;7.940;2023-04-25T01:34:51;100010.22;;;7.69
76583;BMP280;65462;52.148;7.940;2023-04-25T01:37:17;100002.66;;;7.68
76583;BMP280;65462;52.148;7.940;2023-04-25T01:39:43;100003.44;;;7.68
76583;BMP280;65462;52.148;7.940;2023-04-25T01:42:08;100003.72;;;7.67
76583;BMP280;65462;52.148;7.940;2023-04-25T01:44:33;100006.19;;;7.63
76583;BMP280;65462;52.148;7.940;2023-04-25T01:46:59;100006.66;;;7.65
76583;BMP280;65462;52.148;7.940;2023-04-25T01:49:24;100011.47;;;7.63
76583;BMP280;65462;52.148;7.940;2023-04-25T01:51:49;100013.31;;;7.63
76583;BMP280;65462;52.148;7.940;2023-04-25T01:54:15;100017.81;;;7.62
76583;BMP280;65462;52.148;7.940;2023-04-25T01:56:40;100021.53;;;7.61
76583;BMP280;65462;52.148;7.940;2023-04-25T01:59:05;100026.94;;;7.65
76583;BMP280;65462;52.148;7.940;2023-04-25T02:01:31;100029.25;;;7.66
76583;BMP280;65462;52.148;7.940;2023-04-25T02:03:56;100028.78;;;7.64
76583;BMP280;65462;52.148;7.940;2023-04-25T02:06:22;100031.09;;;7.66
76583;BMP280;65462;52.148;7.940;2023-04-25T02:08:47;100035.13;;;7.63
76583;BMP280;65462;52.148;7.940;2023-04-25T02:11:13;100030.03;;;7.58
76583;BMP280;65462;52.148;7.940;2023-04-25T02:13:38;100027.25;;;7.54
76583;BMP280;65462;52.148;7.940;2023-04-25T02:16:03;100038.22;;;7.56
76583;BMP280;65462;52.148;7.940;2023-04-25T02:18:29;100035.91;;;7.55
76583;BMP280;65462;52.148;7.940;2023-04-25T02:20:54;100040.41;;;7.54
76583;BMP280;65462;52.148;7.940;2023-04-25T02:23:20;100041.34;;;7.50
76583;BMP280;65462;52.148;7.940;2023-04-25T02:25:45;100049.22;;;7.50
76583;BMP280;65462;52.148;7.940;2023-04-25T02:28:10;100051.50;;;7.43
76583;BMP280;65462;52.148;7.940;2023-04-25T02:30:36;100057.38;;;7.40
76583;BMP280;65462;52.148;7.940;2023-04-25T02:33:01;100048.13;;;7.34
76583;BMP280;65462;52.148;7.940;2023-04-25T02:35:26;100067.00;;;7.36
76583;BMP280;65462;52.148;7.940;2023-04-25T02:37:52;100044.88;;;7.37
76583;BMP280;65462;52.148;7.940;2023-04-25T02:40:17;100056.31;;;7.32
76583;BMP280;65462;52.148;7.940;2023-04-25T02:42:42;100056.59;;;7.31
76583;BMP280;65462;52.148;7.940;2023-04-25T02:45:08;100065.56;;;7.30
76583;BMP280;65462;52.148;7.940;2023-04-25T02:47:33;100056.94;;;7.29
76583;BMP280;65462;52.148;7.940;2023-04-25T02:49:59;100060.00;;;7.31
76583;BMP280;65462;52.148;7.940;2023-04-25T02:52:24;100056.16;;;7.29
76583;BMP280;65462;52.148;7.940;2023-04-25T02:54:50;100060.63;;;7.28
76583;BMP280;65462;52.148;7.940;2023-04-25T02:57:15;100058.00;;;7.28
76583;BMP280;65462;52.148;7.940;2023-04-25T02:59:41;100062.81;;;7.26
76583;BMP280;65462;52.148;7.940;2023-04-25T03:02:06;100058.91;;;7.24
76583;BMP280;65462;52.148;7.940;2023-04-25T03:04:31;100067.13;;;7.22
76583;BMP280;65462;52.148;7.940;2023-04-25T03:06:58;100064.31;;;7.19
76583;BMP280;65462;52.148;7.940;2023-04-25T03:09:24;100060.78;;;7.15
76583;BMP280;65462;52.148;7.940;2023-04-25T03:11:49;100070.66;;;7.18
76583;BMP280;65462;52.148;7.940;2023-04-25T03:14:14;100074.34;;;7.17
76583;BMP280;65462;52.148;7.940;2023-04-25T03:16:40;100074.06;;;7.10
76583;BMP280;65462;52.148;7.940;2023-04-25T03:19:05;100067.09;;;7.14
76583;BMP280;65462;52.148;7.940;2023-04-25T03:21:32;100075.59;;;7.11
76583;BMP280;65462;52.148;7.940;2023-04-25T03:23:58;100072.94;;;7.11
76583;BMP280;65462;52.148;7.940;2023-04-25T03:26:24;100084.72;;;7.13
76583;BMP280;65462;52.148;7.940;2023-04-25T03:28:50;100078.34;;;7.06
76583;BMP280;65462;52.148;7.940;2023-04-25T03:31:15;100083.28;;;7.07
76583;BMP280;65462;52.148;7.940;2023-04-25T03:33:40;100085.00;;;7.03
76583;BMP280;65462;52.148;7.940;2023-04-25T03:36:06;100089.78;;;7.01
76583;BMP280;65462;52.148;7.940;2023-04-25T03:38:31;100093.19;;;7.02
76583;BMP280;65462;52.148;7.940;2023-04-25T03:40:57;100095.53;;;7.03
76583;BMP280;65462;52.148;7.940;2023-04-25T03:43:22;100097.66;;;7.01
76583;BMP280;65462;52.148;7.940;2023-04-25T03:45:47;100102.72;;;6.97
76583;BMP280;65462;52.148;7.940;2023-04-25T03:48:13;100099.63;;;6.95
76583;BMP280;65462;52.148;7.940;2023-04-25T03:50:38;100108.75;;;6.98
76583;BMP280;65462;52.148;7.940;2023-04-25T03:53:03;100116.63;;;6.98
76583;BMP280;65462;52.148;7.940;2023-04-25T03:55:28;100120.66;;;6.95
76583;BMP280;65462;52.148;7.940;2023-04-25T03:57:54;100117.09;;;6.91
76583;BMP280;65462;52.148;7.940;2023-04-25T04:00:20;100127.28;;;6.93
76583;BMP280;65462;52.148;7.940;2023-04-25T04:02:46;100126.22;;;6.94
76583;BMP280;65462;52.148;7.940;2023-04-25T04:05:11;100133.59;;;6.92
76583;BMP280;65462;52.148;7.940;2023-04-25T04:07:37;100126.94;;;6.86
76583;BMP280;65462;52.148;7.940;2023-04-25T04:10:10;100130.63;;;6.85
76583;BMP280;65462;52.148;7.940;2023-04-25T04:12:36;100130.53;;;6.90
76583;BMP280;65462;52.148;7.940;2023-04-25T04:15:03;100143.47;;;6.86
76583;BMP280;65462;52.148;7.940;2023-04-25T04:17:29;100139.78;;;6.87
76583;BMP280;65462;52.148;7.940;2023-04-25T04:19:54;100139.19;;;6.90
76583;BMP280;65462;52.148;7.940;2023-04-25T04:22:19;100147.06;;;6.90
76583;BMP280;65462;52.148;7.940;2023-04-25T04:24:45;100145.59;;;6.84
76583;BMP280;65462;52.148;7.940;2023-04-25T04:27:11;100141.13;;;6.85
76583;BMP280;65462;52.148;7.940;2023-04-25T04:29:37;100142.22;;;6.84
76583;BMP280;65462;52.148;7.940;2023-04-25T04:32:03;100145.47;;;6.81
76583;BMP280;65462;52.148;7.940;2023-04-25T04:34:28;100155.34;;;6.84
76583;BMP280;65462;52.148;7.940;2023-04-25T04:36:54;100164.59;;;6.81
76583;BMP280;65462;52.148;7.940;2023-04-25T04:39:20;100155.19;;;6.80
76583;BMP280;65462;52.148;7.940;2023-04-25T04:41:45;100153.78;;;6.83
76583;BMP280;65462;52.148;7.940;2023-04-25T04:44:11;100157.19;;;6.83
76583;BMP280;65462;52.148;7.940;2023-04-25T04:46:37;100157.47;;;6.73
76583;BMP280;65462;52.148;7.940;2023-04-25T04:49:10;100161.06;;;6.77
76583;BMP280;65462;52.148;7.940;2023-04-25T04:51:35;100157.16;;;6.75
76583;BMP280;65462;52.148;7.940;2023-04-25T04:54:02;100160.28;;;6.77
76583;BMP280;65462;52.148;7.940;2023-04-25T04:56:31;100167.84;;;6.78
76583;BMP280;65462;52.148;7.940;2023-04-25T04:58:57;100175.25;;;6.76
76583;BMP280;65462;52.148;7.940;2023-04-25T05:01:23;100184.78;;;6.72
76583;BMP280;65462;52.148;7.940;2023-04-25T05:03:48;100180.13;;;6.69
76583;BMP280;65462;52.148;7.940;2023-04-25T05:06:14;100189.69;;;6.65
76583;BMP280;65462;52.148;7.940;2023-04-25T05:08:40;100189.69;;;6.65
76583;BMP280;65462;52.148;7.940;2023-04-25T05:11:05;100194.28;;;6.60
76583;BMP280;65462;52.148;7.940;2023-04-25T05:13:30;100203.13;;;6.64
76583;BMP280;65462;52.148;7.940;2023-04-25T05:15:56;100196.66;;;6.70
76583;BMP280;65462;52.148;7.940;2023-04-25T05:18:21;100206.69;;;6.68
76583;BMP280;65462;52.148;7.940;2023-04-25T05:20:46;100206.81;;;6.63
76583;BMP280;65462;52.148;7.940;2023-04-25T05:23:12;100215.19;;;6.65
76583;BMP280;65462;52.148;7.940;2023-04-25T05:25:37;100216.41;;;6.67
76583;BMP280;65462;52.148;7.940;2023-04-25T05:28:02;100217.66;;;6.70
76583;BMP280;65462;52.148;7.940;2023-04-25T05:30:27;100216.88;;;6.69
76583;BMP280;65462;52.148;7.940;2023-04-25T05:32:53;100225.53;;;6.70
76583;BMP280;65462;52.148;7.940;2023-04-25T05:35:18;100219.50;;;6.69
76583;BMP280;65462;52.148;7.940;2023-04-25T05:37:43;100233.41;;;6.70
76583;BMP280;65462;52.148;7.940;2023-04-25T05:40:09;100222.44;;;6.68
76583;BMP280;65462;52.148;7.940;2023-04-25T05:42:34;100233.59;;;6.73
76583;BMP280;65462;52.148;7.940;2023-04-25T05:45:00;100229.41;;;6.72
76583;BMP280;65462;52.148;7.940;2023-04-25T05:47:25;100229.72;;;6.71
76583;BMP280;65462;52.148;7.940;2023-04-25T05:49:51;100233.59;;;6.73
76583;BMP280;65462;52.148;7.940;2023-04-25T05:52:16;100239.03;;;6.77
76583;BMP280;65462;52.148;7.940;2023-04-25T05:54:41;100242.13;;;6.79
76583;BMP280;65462;52.148;7.940;2023-04-25T05:57:06;100246.75;;;6.82
76583;BMP280;65462;52.148;7.940;2023-04-25T05:59:32;100248.31;;;6.83
76583;BMP280;65462;52.148;7.940;2023-04-25T06:01:57;100243.66;;;6.80
76583;BMP280;65462;52.148;7.940;2023-04-25T06:04:22;100245.38;;;6.84
76583;BMP280;65462;52.148;7.940;2023-04-25T06:06:48;100250.47;;;6.81
76583;BMP280;65462;52.148;7.940;2023-04-25T06:09:13;100249.09;;;6.83
76583;BMP280;65462;52.148;7.940;2023-04-25T06:11:38;100254.34;;;6.83
76583;BMP280;65462;52.148;7.940;2023-04-25T06:14:03;100253.25;;;6.84
76583;BMP280;65462;52.148;7.940;2023-04-25T06:16:29;100259.41;;;6.80
76583;BMP280;65462;52.148;7.940;2023-04-25T06:18:54;100257.75;;;6.84
76583;BMP280;65462;52.148;7.940;2023-04-25T06:21:19;100266.38;;;6.84
76583;BMP280;65462;52.148;7.940;2023-04-25T06:23:45;100256.56;;;6.90
76583;BMP280;65462;52.148;7.940;2023-04-25T06:26:10;100268.13;;;6.89
76583;BMP280;65462;52.148;7.940;2023-04-25T06:28:35;100266.13;;;6.94
76583;BMP280;65462;52.148;7.940;2023-04-25T06:31:00;100274.00;;;6.94
76583;BMP280;65462;52.148;7.940;2023-04-25T06:33:26;100277.13;;;6.97
76583;BMP280;65462;52.148;7.940;2023-04-25T06:35:51;100274.69;;;7.00
76583;BMP280;65462;52.148;7.940;2023-04-25T06:38:17;100276.38;;;7.05
76583;BMP280;65462;52.148;7.940;2023-04-25T06:40:42;100280.25;;;7.07
76583;BMP280;65462;52.148;7.940;2023-04-25T06:43:07;100281.72;;;7.13
76583;BMP280;65462;52.148;7.940;2023-04-25T06:45:33;100282.47;;;7.14
76583;BMP280;65462;52.148;7.940;2023-04-25T06:47:58;100283.59;;;7.21
76583;BMP280;65462;52.148;7.940;2023-04-25T06:50:23;100289.19;;;7.28
76583;BMP280;65462;52.148;7.940;2023-04-25T06:52:49;100284.25;;;7.27
76583;BMP280;65462;52.148;7.940;2023-04-25T06:55:14;100291.22;;;7.31
76583;BMP280;65462;52.148;7.940;2023-04-25T06:57:39;100291.03;;;7.28
76583;BMP280;65462;52.148;7.940;2023-04-25T07:00:05;100298.03;;;7.32
76583;BMP280;65462;52.148;7.940;2023-04-25T07:02:33;100297.25;;;7.32
76583;BMP280;65462;52.148;7.940;2023-04-25T07:04:58;100305.31;;;7.35
76583;BMP280;65462;52.148;7.940;2023-04-25T07:07:25;100300.06;;;7.44
76583;BMP280;65462;52.148;7.940;2023-04-25T07:09:50;100292.97;;;7.44
76583;BMP280;65462;52.148;7.940;2023-04-25T07:12:15;100293.31;;;7.51
76583;BMP280;65462;52.148;7.940;2023-04-25T07:14:41;100300.28;;;7.56
76583;BMP280;65462;52.148;7.940;2023-04-25T07:17:06;100299.22;;;7.57
76583;BMP280;65462;52.148;7.940;2023-04-25T07:19:32;100305.44;;;7.61
76583;BMP280;65462;52.148;7.940;2023-04-25T07:21:58;100301.06;;;7.65
76583;BMP280;65462;52.148;7.940;2023-04-25T07:24:23;100310.25;;;7.68
76583;BMP280;65462;52.148;7.940;2023-04-25T07:26:48;100306.06;;;7.75
76583;BMP280;65462;52.148;7.940;2023-04-25T07:29:14;100323.25;;;7.81
76583;BMP280;65462;52.148;7.940;2023-04-25T07:31:39;100299.00;;;7.84
76583;BMP280;65462;52.148;7.940;2023-04-25T07:34:04;100309.53;;;7.93
76583;BMP280;65462;52.148;7.940;2023-04-25T07:36:30;100298.56;;;7.91
76583;BMP280;65462;52.148;7.940;2023-04-25T07:38:56;100312.03;;;8.06
76583;BMP280;65462;52.148;7.940;2023-04-25T07:41:21;100313.56;;;8.07
76583;BMP280;65462;52.148;7.940;2023-04-25T07:43:47;100316.88;;;8.13
76583;BMP280;65462;52.148;7.940;2023-04-25T07:46:12;100319.19;;;8.14
76583;BMP280;65462;52.148;7.940;2023-04-25T07:48:37;100323.50;;;8.19
76583;BMP280;65462;52.148;7.940;2023-04-25T07:51:03;100327.84;;;8.23
76583;BMP280;65462;52.148;7.940;2023-04-25T07:53:30;100333.91;;;8.24
76583;BMP280;65462;52.148;7.940;2023-04-25T07:55:56;100339.31;;;8.27
76583;BMP280;65462;52.148;7.940;2023-04-25T07:58:21;100334.22;;;8.31
76583;BMP280;65462;52.148;7.940;2023-04-25T08:00:47;100336.56;;;8.33
76583;BMP280;65462;52.148;7.940;2023-04-25T08:03:13;100342.28;;;8.35
76583;BMP280;65462;52.148;7.940;2023-04-25T08:05:38;100349.25;;;8.39
76583;BMP280;65462;52.148;7.940;2023-04-25T08:08:04;100354.78;;;8.38
76583;BMP280;65462;52.148;7.940;2023-04-25T08:10:31;100355.75;;;8.42
76583;BMP280;65462;52.148;7.940;2023-04-25T08:12:57;100361.19;;;8.45
76583;BMP280;65462;52.148;7.940;2023-04-25T08:15:22;100367.19;;;8.46
76583;BMP280;65462;52.148;7.940;2023-04-25T08:17:47;100369.50;;;8.47
76583;BMP280;65462;52.148;7.940;2023-04-25T08:20:13;100371.25;;;8.52
76583;BMP280;65462;52.148;7.940;2023-04-25T08:22:38;100372.50;;;8.54
76583;BMP280;65462;52.148;7.940;2023-04-25T08:25:04;100377.56;;;8.59
76583;BMP280;65462;52.148;7.940;2023-04-25T08:27:29;100372.47;;;8.63
76583;BMP280;65462;52.148;7.940;2023-04-25T08:29:55;100380.06;;;8.73
76583;BMP280;65462;52.148;7.940;2023-04-25T08:32:20;100378.38;;;8.77
76583;BMP280;65462;52.148;7.940;2023-04-25T08:34:46;100387.38;;;8.93
76583;BMP280;65462;52.148;7.940;2023-04-25T08:37:15;100388.75;;;8.99
76583;BMP280;65462;52.148;7.940;2023-04-25T08:39:40;100388.72;;;9.08
76583;BMP280;65462;52.148;7.940;2023-04-25T08:42:11;100389.81;;;9.07
76583;BMP280;65462;52.148;7.940;2023-04-25T08:44:37;100389.50;;;9.08
76583;BMP280;65462;52.148;7.940;2023-04-25T08:47:04;100392.88;;;9.17
76583;BMP280;65462;52.148;7.940;2023-04-25T08:49:32;100393.50;;;9.31
76583;BMP280;65462;52.148;7.940;2023-04-25T08:52:00;100396.25;;;9.43
76583;BMP280;65462;52.148;7.940;2023-04-25T08:54:27;100403.38;;;9.51
76583;BMP280;65462;52.148;7.940;2023-04-25T08:56:54;100403.19;;;9.56
76583;BMP280;65462;52.148;7.940;2023-04-25T08:59:22;100405.97;;;9.60
76583;BMP280;65462;52.148;7.940;2023-04-25T09:01:49;100409.84;;;9.63
76583;BMP280;65462;52.148;7.940;2023-04-25T09:04:15;100415.59;;;9.65
76583;BMP280;65462;52.148;7.940;2023-04-25T09:06:40;100416.06;;;9.67
76583;BMP280;65462;52.148;7.940;2023-04-25T09:09:07;100423.66;;;9.68
76583;BMP280;65462;52.148;7.940;2023-04-25T09:11:35;100421.78;;;9.60
76583;BMP280;65462;52.148;7.940;2023-04-25T09:14:20;100422.56;;;9.60
76583;BMP280;65462;52.148;7.940;2023-04-25T09:17:04;100433.00;;;9.57
76583;BMP280;65462;52.148;7.940;2023-04-25T09:19:32;100430.38;;;9.48
76583;BMP280;65462;52.148;7.940;2023-04-25T09:22:06;100441.84;;;9.44
76583;BMP280;65462;52.148;7.940;2023-04-25T09:24:37;100447.00;;;9.40
76583;BMP280;65462;52.148;7.940;2023-04-25T09:27:04;100449.47;;;9.37
76583;BMP280;65462;52.148;7.940;2023-04-25T09:29:31;100459.84;;;9.33
76583;BMP280;65462;52.148;7.940;2023-04-25T09:32:28;100460.50;;;9.30
76583;BMP280;65462;52.148;7.940;2023-04-25T09:38:14;100458.34;;;9.32
76583;BMP280;65462;52.148;7.940;2023-04-25T09:40:44;100456.47;;;9.33
76583;BMP280;65462;52.148;7.940;2023-04-25T09:45:42;100453.81;;;9.24
76583;BMP280;65462;52.148;7.940;2023-04-25T09:51:33;100451.47;;;9.48
76583;BMP280;65462;52.148;7.940;2023-04-25T09:53:58;100452.69;;;9.68
76583;BMP280;65462;52.148;7.940;2023-04-25T09:56:26;100446.56;;;9.85
76583;BMP280;65462;52.148;7.940;2023-04-25T09:58:53;100449.47;;;10.00
76583;BMP280;65462;52.148;7.940;2023-04-25T10:01:20;100447.03;;;10.16
76583;BMP280;65462;52.148;7.940;2023-04-25T10:03:47;100461.41;;;10.36
76583;BMP280;65462;52.148;7.940;2023-04-25T10:06:19;100463.31;;;10.47
76583;BMP280;65462;52.148;7.940;2023-04-25T10:08:45;100464.19;;;10.60
76583;BMP280;65462;52.148;7.940;2023-04-25T10:11:16;100467.72;;;10.64
76583;BMP280;65462;52.148;7.940;2023-04-25T10:13:42;100470.94;;;10.69
76583;BMP280;65462;52.148;7.940;2023-04-25T10:16:08;100464.22;;;10.72
76583;BMP280;65462;52.148;7.940;2023-04-25T10:18:33;100468.88;;;10.75
76583;BMP280;65462;52.148;7.940;2023-04-25T10:21:03;100478.47;;;10.79
76583;BMP280;65462;52.148;7.940;2023-04-25T10:23:30;100469.13;;;10.82
76583;BMP280;65462;52.148;7.940;2023-04-25T10:25:56;100480.59;;;10.86
76583;BMP280;65462;52.148;7.940;2023-04-25T10:28:22;100484.81;;;10.87
76583;BMP280;65462;52.148;7.940;2023-04-25T10:31:01;100482.47;;;10.85
76583;BMP280;65462;52.148;7.940;2023-04-25T10:33:38;100491.50;;;10.84
76583;BMP280;65462;52.148;7.940;2023-04-25T10:36:15;100484.97;;;10.90
76583;BMP280;65462;52.148;7.940;2023-04-25T10:38:43;100488.63;;;11.10
76583;BMP280;65462;52.148;7.940;2023-04-25T10:41:09;100487.69;;;11.15
76583;BMP280;65462;52.148;7.940;2023-04-25T10:46:01;100483.09;;;11.24
76583;BMP280;65462;52.148;7.940;2023-04-25T10:53:34;100490.75;;;11.37
76583;BMP280;65462;52.148;7.940;2023-04-25T10:56:00;100496.16;;;11.41
76583;BMP280;65462;52.148;7.940;2023-04-25T10:58:26;100495.06;;;11.42
76583;BMP280;65462;52.148;7.940;2023-04-25T11:00:51;100485.16;;;11.51
76583;BMP280;65462;52.148;7.940;2023-04-25T11:03:17;100493.81;;;11.72
76583;BMP280;65462;52.148;7.940;2023-04-25T11:05:44;100494.16;;;11.83
76583;BMP280;65462;52.148;7.940;2023-04-25T11:08:11;100496.91;;;11.98
76583;BMP280;65462;52.148;7.940;2023-04-25T11:10:39;100496.59;;;12.12
76583;BMP280;65462;52.148;7.940;2023-04-25T11:13:05;100498.16;;;12.13
76583;BMP280;65462;52.148;7.940;2023-04-25T11:15:30;100512.84;;;12.22
76583;BMP280;65462;52.148;7.940;2023-04-25T11:17:55;100507.72;;;12.29
76583;BMP280;65462;52.148;7.940;2023-04-25T11:20:22;100516.00;;;12.28
76583;BMP280;65462;52.148;7.940;2023-04-25T11:22:47;100509.28;;;12.18
76583;BMP280;65462;52.148;7.940;2023-04-25T11:25:15;100513.38;;;12.04
76583;BMP280;65462;52.148;7.940;2023-04-25T11:27:50;100518.97;;;11.90
76583;BMP280;65462;52.148;7.940;2023-04-25T11:30:19;100530.41;;;11.70
76583;BMP280;65462;52.148;7.940;2023-04-25T11:32:45;100525.31;;;11.53
76583;BMP280;65462;52.148;7.940;2023-04-25T11:35:11;100527.47;;;11.39
76583;BMP280;65462;52.148;7.940;2023-04-25T11:37:39;100525.88;;;11.26
76583;BMP280;65462;52.148;7.940;2023-04-25T11:40:06;100520.31;;;11.19
76583;BMP280;65462;52.148;7.940;2023-04-25T11:42:31;100531.72;;;11.11
76583;BMP280;65462;52.148;7.940;2023-04-25T11:44:57;100532.84;;;11.10
76583;BMP280;65462;52.148;7.940;2023-04-25T11:47:29;100527.44;;;11.06
76583;BMP280;65462;52.148;7.940;2023-04-25T11:49:54;100532.25;;;11.04
76583;BMP280;65462;52.148;7.940;2023-04-25T11:52:20;100537.88;;;11.02
76583;BMP280;65462;52.148;7.940;2023-04-25T11:54:45;100540.50;;;11.02
76583;BMP280;65462;52.148;7.940;2023-04-25T11:57:11;100535.22;;;11.02
76583;BMP280;65462;52.148;7.940;2023-04-25T11:59:36;100527.28;;;11.02
76583;BMP280;65462;52.148;7.940;2023-04-25T12:02:02;100531.88;;;11.14
76583;BMP280;65462;52.148;7.940;2023-04-25T12:04:30;100532.25;;;11.25
76583;BMP280;65462;52.148;7.940;2023-04-25T12:06:56;100528.19;;;11.27
76583;BMP280;65462;52.148;7.940;2023-04-25T12:09:28;100537.41;;;11.42
76583;BMP280;65462;52.148;7.940;2023-04-25T12:11:55;100531.88;;;11.47
76583;BMP280;65462;52.148;7.940;2023-04-25T12:14:23;100530.16;;;11.63
76583;BMP280;65462;52.148;7.940;2023-04-25T12:16:55;100545.66;;;11.73
76583;BMP280;65462;52.148;7.940;2023-04-25T12:19:23;100542.13;;;11.81
76583;BMP280;65462;52.148;7.940;2023-04-25T12:21:49;100548.00;;;11.87
76583;BMP280;65462;52.148;7.940;2023-04-25T12:27:01;100570.81;;;11.79
76583;BMP280;65462;52.148;7.940;2023-04-25T12:29:29;100572.84;;;11.61
76583;BMP280;65462;52.148;7.940;2023-04-25T12:31:55;100573.84;;;11.36
76583;BMP280;65462;52.148;7.940;2023-04-25T12:34:21;100577.16;;;11.13
76583;BMP280;65462;52.148;7.940;2023-04-25T12:36:48;100587.72;;;10.92
76583;BMP280;65462;52.148;7.940;2023-04-25T12:39:24;100574.44;;;10.71
76583;BMP280;65462;52.148;7.940;2023-04-25T12:41:50;100571.25;;;10.57
76583;BMP280;65462;52.148;7.940;2023-04-25T12:44:17;100573.19;;;10.48
76583;BMP280;65462;52.148;7.940;2023-04-25T12:46:43;100569.28;;;10.46
76583;BMP280;65462;52.148;7.940;2023-04-25T12:49:08;100563.91;;;10.42
76583;BMP280;65462;52.148;7.940;2023-04-25T12:51:35;100558.75;;;10.37
76583;BMP280;65462;52.148;7.940;2023-04-25T12:54:02;100571.34;;;10.40
76583;BMP280;65462;52.148;7.940;2023-04-25T12:56:28;100568.53;;;10.45
76583;BMP280;65462;52.148;7.940;2023-04-25T12:58:54;100566.94;;;10.53
76583;BMP280;65462;52.148;7.940;2023-04-25T13:01:20;100560.84;;;10.61
76583;BMP280;65462;52.148;7.940;2023-04-25T13:03:46;100565.13;;;10.74
76583;BMP280;65462;52.148;7.940;2023-04-25T13:06:12;100559.91;;;10.86
76583;BMP280;65462;52.148;7.940;2023-04-25T13:08:38;100564.31;;;11.02
76583;BMP280;65462;52.148;7.940;2023-04-25T13:11:04;100561.44;;;11.16
76583;BMP280;65462;52.148;7.940;2023-04-25T13:13:29;100556.75;;;11.34
76583;BMP280;65462;52.148;7.940;2023-04-25T13:15:56;100565.34;;;11.51
76583;BMP280;65462;52.148;7.940;2023-04-25T13:18:22;100559.50;;;11.58
76583;BMP280;65462;52.148;7.940;2023-04-25T13:20:51;100573.59;;;11.62
76583;BMP280;65462;52.148;7.940;2023-04-25T13:23:16;100573.75;;;11.65
76583;BMP280;65462;52.148;7.940;2023-04-25T13:25:42;100580.03;;;11.61
76583;BMP280;65462;52.148;7.940;2023-04-25T13:28:07;100589.97;;;11.64
76583;BMP280;65462;52.148;7.940;2023-04-25T13:30:32;100592.50;;;11.60
76583;BMP280;65462;52.148;7.940;2023-04-25T13:32:58;100577.56;;;11.56
76583;BMP280;65462;52.148;7.940;2023-04-25T13:35:29;100585.25;;;11.49
76583;BMP280;65462;52.148;7.940;2023-04-25T13:37:54;100593.41;;;11.44
76583;BMP280;65462;52.148;7.940;2023-04-25T13:40:20;100586.81;;;11.50
76583;BMP280;65462;52.148;7.940;2023-04-25T13:42:45;100589.00;;;11.48
76583;BMP280;65462;52.148;7.940;2023-04-25T13:45:11;100590.47;;;11.45
76583;BMP280;65462;52.148;7.940;2023-04-25T13:47:36;100585.31;;;11.40
76583;BMP280;65462;52.148;7.940;2023-04-25T13:50:02;100600.00;;;11.38
76583;BMP280;65462;52.148;7.940;2023-04-25T13:52:28;100600.00;;;11.38
76583;BMP280;65462;52.148;7.940;2023-04-25T13:54:53;100602.50;;;11.34
76583;BMP280;65462;52.148;7.940;2023-04-25T13:57:19;100595.09;;;11.28
76583;BMP280;65462;52.148;7.940;2023-04-25T13:59:44;100601.00;;;11.25
76583;BMP280;65462;52.148;7.940;2023-04-25T14:02:11;100604.75;;;11.24
76583;BMP280;65462;52.148;7.940;2023-04-25T14:04:36;100606.47;;;11.20
76583;BMP280;65462;52.148;7.940;2023-04-25T14:07:03;100596.13;;;11.15
76583;BMP280;65462;52.148;7.940;2023-04-25T14:09:28;100612.09;;;11.18
76583;BMP280;65462;52.148;7.940;2023-04-25T14:11:54;100596.16;;;11.27
76583;BMP280;65462;52.148;7.940;2023-04-25T14:14:21;100611.47;;;11.42
76583;BMP280;65462;52.148;7.940;2023-04-25T14:16:47;100598.47;;;11.49
76583;BMP280;65462;52.148;7.940;2023-04-25T14:19:13;100595.97;;;11.52
76583;BMP280;65462;52.148;7.940;2023-04-25T14:21:39;100603.72;;;11.57